sensor_id;sensor_type;location;lat;lon;timestamp;P1;durP1;ratioP1;P2;durP2;ratioP2
58864;SDS011;45702;52.982;6.658;2024-03-08T00:00:56;65.47;;;30.33;;
58864;SDS011;45702;52.982;6.658;2024-03-08T00:03:22;72.75;;;31.77;;
58864;SDS011;45702;52.982;6.658;2024-03-08T00:05:48;68.45;;;31.80;;
58864;SDS011;45702;52.982;6.658;2024-03-08T00:08:14;69.93;;;31.88;;
58864;SDS011;45702;52.982;6.658;2024-03-08T00:10:41;69.65;;;31.70;;
58864;SDS011;45702;52.982;6.658;2024-03-08T00:13:07;69.70;;;31.13;;
58864;SDS011;45702;52.982;6.658;2024-03-08T00:15:33;65.07;;;31.25;;
58864;SDS011;45702;52.982;6.658;2024-03-08T00:17:59;68.18;;;31.98;;
58864;SDS011;45702;52.982;6.658;2024-03-08T00:20:26;71.72;;;31.50;;
58864;SDS011;45702;52.982;6.658;2024-03-08T00:22:52;69.82;;;30.05;;
58864;SDS011;45702;52.982;6.658;2024-03-08T00:25:19;73.13;;;32.58;;
58864;SDS011;45702;52.982;6.658;2024-03-08T00:27:45;73.43;;;31.33;;
58864;SDS011;45702;52.982;6.658;2024-03-08T00:30:14;70.35;;;30.67;;
58864;SDS011;45702;52.982;6.658;2024-03-08T00:32:40;71.55;;;32.10;;
58864;SDS011;45702;52.982;6.658;2024-03-08T00:35:06;71.68;;;31.60;;
58864;SDS011;45702;52.982;6.658;2024-03-08T00:37:33;73.07;;;31.55;;
58864;SDS011;45702;52.982;6.658;2024-03-08T00:42:27;68.20;;;31.30;;
58864;SDS011;45702;52.982;6.658;2024-03-08T00:44:53;70.90;;;31.08;;
58864;SDS011;45702;52.982;6.658;2024-03-08T00:47:19;72.97;;;31.48;;
58864;SDS011;45702;52.982;6.658;2024-03-08T00:49:45;70.35;;;31.90;;
58864;SDS011;45702;52.982;6.658;2024-03-08T00:52:12;70.72;;;32.15;;
58864;SDS011;45702;52.982;6.658;2024-03-08T00:54:38;72.25;;;31.45;;
58864;SDS011;45702;52.982;6.658;2024-03-08T00:57:04;74.05;;;32.05;;
58864;SDS011;45702;52.982;6.658;2024-03-08T00:59:31;69.18;;;32.33;;
58864;SDS011;45702;52.982;6.658;2024-03-08T01:01:58;70.28;;;32.40;;
58864;SDS011;45702;52.982;6.658;2024-03-08T01:04:25;72.13;;;31.38;;
58864;SDS011;45702;52.982;6.658;2024-03-08T01:06:54;68.25;;;31.80;;
58864;SDS011;45702;52.982;6.658;2024-03-08T01:09:21;76.78;;;31.67;;
58864;SDS011;45702;52.982;6.658;2024-03-08T01:11:48;68.55;;;32.00;;
58864;SDS011;45702;52.982;6.658;2024-03-08T01:14:14;69.68;;;31.50;;
58864;SDS011;45702;52.982;6.658;2024-03-08T01:16:40;69.97;;;31.83;;
58864;SDS011;45702;52.982;6.658;2024-03-08T01:19:07;71.00;;;32.67;;
58864;SDS011;45702;52.982;6.658;2024-03-08T01:21:33;70.05;;;30.55;;
58864;SDS011;45702;52.982;6.658;2024-03-08T01:24:00;71.90;;;33.30;;
58864;SDS011;45702;52.982;6.658;2024-03-08T01:26:26;73.25;;;31.70;;
58864;SDS011;45702;52.982;6.658;2024-03-08T01:28:52;71.85;;;33.78;;
58864;SDS011;45702;52.982;6.658;2024-03-08T01:31:18;76.25;;;32.92;;
58864;SDS011;45702;52.982;6.658;2024-03-08T01:33:44;69.90;;;31.88;;
58864;SDS011;45702;52.982;6.658;2024-03-08T01:36:10;71.55;;;32.00;;
58864;SDS011;45702;52.982;6.658;2024-03-08T01:38:40;73.03;;;32.22;;
58864;SDS011;45702;52.982;6.658;2024-03-08T01:41:06;71.35;;;32.47;;
58864;SDS011;45702;52.982;6.658;2024-03-08T01:43:32;75.32;;;33.15;;
58864;SDS011;45702;52.982;6.658;2024-03-08T01:45:58;72.05;;;32.67;;
58864;SDS011;45702;52.982;6.658;2024-03-08T01:48:25;75.63;;;33.22;;
58864;SDS011;45702;52.982;6.658;2024-03-08T01:50:51;68.78;;;32.45;;
58864;SDS011;45702;52.982;6.658;2024-03-08T01:53:19;74.55;;;33.63;;
58864;SDS011;45702;52.982;6.658;2024-03-08T01:55:49;74.88;;;32.72;;
58864;SDS011;45702;52.982;6.658;2024-03-08T01:58:15;78.13;;;33.30;;
58864;SDS011;45702;52.982;6.658;2024-03-08T02:00:43;74.13;;;31.08;;
58864;SDS011;45702;52.982;6.658;2024-03-08T02:03:10;72.68;;;32.95;;
58864;SDS011;45702;52.982;6.658;2024-03-08T02:05:36;71.53;;;32.92;;
58864;SDS011;45702;52.982;6.658;2024-03-08T02:08:03;74.45;;;33.90;;
58864;SDS011;45702;52.982;6.658;2024-03-08T02:10:32;71.10;;;32.00;;
58864;SDS011;45702;52.982;6.658;2024-03-08T02:12:58;78.40;;;33.65;;
58864;SDS011;45702;52.982;6.658;2024-03-08T02:15:25;72.03;;;32.90;;
58864;SDS011;45702;52.982;6.658;2024-03-08T02:17:51;73.10;;;32.83;;
58864;SDS011;45702;52.982;6.658;2024-03-08T02:20:18;76.32;;;33.20;;
58864;SDS011;45702;52.982;6.658;2024-03-08T02:22:45;75.30;;;32.38;;
58864;SDS011;45702;52.982;6.658;2024-03-08T02:25:11;74.28;;;32.70;;
58864;SDS011;45702;52.982;6.658;2024-03-08T02:27:37;73.90;;;32.78;;
58864;SDS011;45702;52.982;6.658;2024-03-08T02:30:03;68.65;;;31.85;;
58864;SDS011;45702;52.982;6.658;2024-03-08T02:32:30;73.50;;;32.58;;
58864;SDS011;45702;52.982;6.658;2024-03-08T02:34:57;71.80;;;33.50;;
58864;SDS011;45702;52.982;6.658;2024-03-08T02:37:27;76.15;;;33.90;;
58864;SDS011;45702;52.982;6.658;2024-03-08T02:39:53;68.47;;;33.05;;
58864;SDS011;45702;52.982;6.658;2024-03-08T02:42:20;74.90;;;34.20;;
58864;SDS011;45702;52.982;6.658;2024-03-08T02:44:46;73.70;;;32.42;;
58864;SDS011;45702;52.982;6.658;2024-03-08T02:47:12;74.82;;;33.13;;
58864;SDS011;45702;52.982;6.658;2024-03-08T02:49:38;74.95;;;32.80;;
58864;SDS011;45702;52.982;6.658;2024-03-08T02:52:04;73.25;;;33.03;;
58864;SDS011;45702;52.982;6.658;2024-03-08T02:54:30;75.72;;;34.00;;
58864;SDS011;45702;52.982;6.658;2024-03-08T02:56:56;76.03;;;34.00;;
58864;SDS011;45702;52.982;6.658;2024-03-08T02:59:22;77.75;;;34.15;;
58864;SDS011;45702;52.982;6.658;2024-03-08T03:01:48;67.53;;;32.08;;
58864;SDS011;45702;52.982;6.658;2024-03-08T03:04:15;70.43;;;33.17;;
58864;SDS011;45702;52.982;6.658;2024-03-08T03:06:41;76.32;;;33.58;;
58864;SDS011;45702;52.982;6.658;2024-03-08T03:09:07;73.88;;;33.15;;
58864;SDS011;45702;52.982;6.658;2024-03-08T03:11:35;71.75;;;33.05;;
58864;SDS011;45702;52.982;6.658;2024-03-08T03:14:02;75.30;;;33.10;;
58864;SDS011;45702;52.982;6.658;2024-03-08T03:16:29;68.80;;;32.08;;
58864;SDS011;45702;52.982;6.658;2024-03-08T03:18:55;70.72;;;34.10;;
58864;SDS011;45702;52.982;6.658;2024-03-08T03:21:22;72.00;;;33.45;;
58864;SDS011;45702;52.982;6.658;2024-03-08T03:23:48;70.95;;;32.40;;
58864;SDS011;45702;52.982;6.658;2024-03-08T03:26:14;69.97;;;32.90;;
58864;SDS011;45702;52.982;6.658;2024-03-08T03:28:42;72.65;;;32.97;;
58864;SDS011;45702;52.982;6.658;2024-03-08T03:31:08;74.03;;;34.05;;
58864;SDS011;45702;52.982;6.658;2024-03-08T03:33:39;69.55;;;32.03;;
58864;SDS011;45702;52.982;6.658;2024-03-08T03:36:05;66.65;;;31.50;;
58864;SDS011;45702;52.982;6.658;2024-03-08T03:41:00;68.38;;;32.10;;
58864;SDS011;45702;52.982;6.658;2024-03-08T03:43:35;69.97;;;32.47;;
58864;SDS011;45702;52.982;6.658;2024-03-08T03:46:05;67.57;;;32.47;;
58864;SDS011;45702;52.982;6.658;2024-03-08T03:48:31;71.78;;;32.03;;
58864;SDS011;45702;52.982;6.658;2024-03-08T03:50:57;70.95;;;31.85;;
58864;SDS011;45702;52.982;6.658;2024-03-08T03:53:23;67.05;;;32.67;;
58864;SDS011;45702;52.982;6.658;2024-03-08T03:55:51;67.80;;;32.03;;
58864;SDS011;45702;52.982;6.658;2024-03-08T03:58:17;67.28;;;31.48;;
58864;SDS011;45702;52.982;6.658;2024-03-08T04:00:47;71.68;;;32.42;;
58864;SDS011;45702;52.982;6.658;2024-03-08T04:03:14;68.57;;;32.45;;
58864;SDS011;45702;52.982;6.658;2024-03-08T04:05:41;66.10;;;31.65;;
58864;SDS011;45702;52.982;6.658;2024-03-08T04:08:08;68.18;;;30.95;;
58864;SDS011;45702;52.982;6.658;2024-03-08T04:10:34;68.22;;;31.98;;
58864;SDS011;45702;52.982;6.658;2024-03-08T04:13:00;69.50;;;32.30;;
58864;SDS011;45702;52.982;6.658;2024-03-08T04:15:26;72.82;;;31.48;;
58864;SDS011;45702;52.982;6.658;2024-03-08T04:17:52;67.90;;;31.52;;
58864;SDS011;45702;52.982;6.658;2024-03-08T04:20:18;66.68;;;31.80;;
58864;SDS011;45702;52.982;6.658;2024-03-08T04:22:44;67.20;;;31.85;;
58864;SDS011;45702;52.982;6.658;2024-03-08T04:25:14;68.40;;;32.10;;
58864;SDS011;45702;52.982;6.658;2024-03-08T04:27:40;66.90;;;30.27;;
58864;SDS011;45702;52.982;6.658;2024-03-08T04:30:06;67.72;;;31.38;;
58864;SDS011;45702;52.982;6.658;2024-03-08T04:32:32;66.72;;;32.03;;
58864;SDS011;45702;52.982;6.658;2024-03-08T04:34:58;65.72;;;30.80;;
58864;SDS011;45702;52.982;6.658;2024-03-08T04:37:26;67.17;;;31.03;;
58864;SDS011;45702;52.982;6.658;2024-03-08T04:39:54;66.95;;;30.15;;
58864;SDS011;45702;52.982;6.658;2024-03-08T04:42:20;66.97;;;31.67;;
58864;SDS011;45702;52.982;6.658;2024-03-08T04:44:47;67.43;;;31.00;;
58864;SDS011;45702;52.982;6.658;2024-03-08T04:47:14;68.22;;;31.13;;
58864;SDS011;45702;52.982;6.658;2024-03-08T04:49:41;66.25;;;31.27;;
58864;SDS011;45702;52.982;6.658;2024-03-08T04:52:07;65.68;;;31.25;;
58864;SDS011;45702;52.982;6.658;2024-03-08T04:54:33;63.47;;;30.90;;
58864;SDS011;45702;52.982;6.658;2024-03-08T04:56:59;67.15;;;31.73;;
58864;SDS011;45702;52.982;6.658;2024-03-08T04:59:26;64.30;;;30.40;;
58864;SDS011;45702;52.982;6.658;2024-03-08T05:01:52;64.28;;;30.48;;
58864;SDS011;45702;52.982;6.658;2024-03-08T05:04:18;63.92;;;28.98;;
58864;SDS011;45702;52.982;6.658;2024-03-08T05:06:44;61.10;;;30.10;;
58864;SDS011;45702;52.982;6.658;2024-03-08T05:09:10;66.28;;;30.00;;
58864;SDS011;45702;52.982;6.658;2024-03-08T05:11:44;61.40;;;30.42;;
58864;SDS011;45702;52.982;6.658;2024-03-08T05:14:10;65.55;;;30.20;;
58864;SDS011;45702;52.982;6.658;2024-03-08T05:16:37;63.08;;;30.80;;
58864;SDS011;45702;52.982;6.658;2024-03-08T05:19:05;61.40;;;30.98;;
58864;SDS011;45702;52.982;6.658;2024-03-08T05:21:31;61.75;;;30.02;;
58864;SDS011;45702;52.982;6.658;2024-03-08T05:23:58;62.50;;;29.90;;
58864;SDS011;45702;52.982;6.658;2024-03-08T05:26:24;60.20;;;30.30;;
58864;SDS011;45702;52.982;6.658;2024-03-08T05:28:50;67.18;;;31.60;;
58864;SDS011;45702;52.982;6.658;2024-03-08T05:31:20;61.78;;;29.85;;
58864;SDS011;45702;52.982;6.658;2024-03-08T05:33:49;59.88;;;29.95;;
58864;SDS011;45702;52.982;6.658;2024-03-08T05:36:16;64.68;;;30.10;;
58864;SDS011;45702;52.982;6.658;2024-03-08T05:38:42;65.40;;;29.85;;
58864;SDS011;45702;52.982;6.658;2024-03-08T05:41:09;65.70;;;30.60;;
58864;SDS011;45702;52.982;6.658;2024-03-08T05:43:36;65.03;;;30.30;;
58864;SDS011;45702;52.982;6.658;2024-03-08T05:46:03;64.82;;;30.90;;
58864;SDS011;45702;52.982;6.658;2024-03-08T05:48:29;64.15;;;29.52;;
58864;SDS011;45702;52.982;6.658;2024-03-08T05:50:57;63.10;;;30.73;;
58864;SDS011;45702;52.982;6.658;2024-03-08T05:53:23;63.97;;;29.42;;
58864;SDS011;45702;52.982;6.658;2024-03-08T05:55:49;62.53;;;29.98;;
58864;SDS011;45702;52.982;6.658;2024-03-08T05:58:15;64.43;;;29.85;;
58864;SDS011;45702;52.982;6.658;2024-03-08T06:00:41;61.72;;;28.98;;
58864;SDS011;45702;52.982;6.658;2024-03-08T06:03:07;62.85;;;30.17;;
58864;SDS011;45702;52.982;6.658;2024-03-08T06:05:34;62.67;;;30.58;;
58864;SDS011;45702;52.982;6.658;2024-03-08T06:08:00;64.93;;;30.98;;
58864;SDS011;45702;52.982;6.658;2024-03-08T06:10:26;63.58;;;30.23;;
58864;SDS011;45702;52.982;6.658;2024-03-08T06:12:52;64.15;;;29.33;;
58864;SDS011;45702;52.982;6.658;2024-03-08T06:15:19;61.80;;;29.27;;
58864;SDS011;45702;52.982;6.658;2024-03-08T06:17:46;65.60;;;30.40;;
58864;SDS011;45702;52.982;6.658;2024-03-08T06:20:12;60.90;;;30.08;;
58864;SDS011;45702;52.982;6.658;2024-03-08T06:22:42;59.50;;;28.90;;
58864;SDS011;45702;52.982;6.658;2024-03-08T06:25:09;62.13;;;29.38;;
58864;SDS011;45702;52.982;6.658;2024-03-08T06:27:39;59.97;;;29.00;;
58864;SDS011;45702;52.982;6.658;2024-03-08T06:30:05;65.32;;;31.40;;
58864;SDS011;45702;52.982;6.658;2024-03-08T06:32:31;59.03;;;29.42;;
58864;SDS011;45702;52.982;6.658;2024-03-08T06:35:01;62.03;;;29.63;;
58864;SDS011;45702;52.982;6.658;2024-03-08T06:37:27;58.10;;;29.15;;
58864;SDS011;45702;52.982;6.658;2024-03-08T06:39:53;57.45;;;29.00;;
58864;SDS011;45702;52.982;6.658;2024-03-08T06:42:20;59.88;;;29.75;;
58864;SDS011;45702;52.982;6.658;2024-03-08T06:44:46;59.85;;;29.00;;
58864;SDS011;45702;52.982;6.658;2024-03-08T06:47:15;63.60;;;29.77;;
58864;SDS011;45702;52.982;6.658;2024-03-08T06:49:42;61.78;;;29.42;;
58864;SDS011;45702;52.982;6.658;2024-03-08T06:52:09;62.70;;;29.33;;
58864;SDS011;45702;52.982;6.658;2024-03-08T06:54:35;62.00;;;29.48;;
58864;SDS011;45702;52.982;6.658;2024-03-08T06:57:02;62.90;;;29.92;;
58864;SDS011;45702;52.982;6.658;2024-03-08T06:59:29;57.67;;;28.77;;
58864;SDS011;45702;52.982;6.658;2024-03-08T07:01:55;60.65;;;29.45;;
58864;SDS011;45702;52.982;6.658;2024-03-08T07:04:21;63.58;;;30.27;;
58864;SDS011;45702;52.982;6.658;2024-03-08T07:06:51;59.78;;;29.23;;
58864;SDS011;45702;52.982;6.658;2024-03-08T07:09:17;61.20;;;29.08;;
58864;SDS011;45702;52.982;6.658;2024-03-08T07:11:43;63.13;;;28.92;;
58864;SDS011;45702;52.982;6.658;2024-03-08T07:14:09;63.67;;;29.77;;
58864;SDS011;45702;52.982;6.658;2024-03-08T07:16:35;63.22;;;29.77;;
58864;SDS011;45702;52.982;6.658;2024-03-08T07:19:01;58.05;;;29.35;;
58864;SDS011;45702;52.982;6.658;2024-03-08T07:21:28;61.33;;;28.80;;
58864;SDS011;45702;52.982;6.658;2024-03-08T07:23:54;60.58;;;28.05;;
58864;SDS011;45702;52.982;6.658;2024-03-08T07:26:26;59.42;;;28.90;;
58864;SDS011;45702;52.982;6.658;2024-03-08T07:28:52;60.55;;;29.38;;
58864;SDS011;45702;52.982;6.658;2024-03-08T07:31:20;56.85;;;29.35;;
58864;SDS011;45702;52.982;6.658;2024-03-08T07:34:03;60.08;;;29.70;;
58864;SDS011;45702;52.982;6.658;2024-03-08T07:36:33;57.97;;;29.00;;
58864;SDS011;45702;52.982;6.658;2024-03-08T07:39:00;60.40;;;28.58;;
58864;SDS011;45702;52.982;6.658;2024-03-08T07:41:26;57.47;;;29.55;;
58864;SDS011;45702;52.982;6.658;2024-03-08T07:43:52;56.30;;;29.20;;
58864;SDS011;45702;52.982;6.658;2024-03-08T07:46:18;57.40;;;30.35;;
58864;SDS011;45702;52.982;6.658;2024-03-08T07:48:44;62.60;;;29.75;;
58864;SDS011;45702;52.982;6.658;2024-03-08T07:51:11;60.85;;;29.63;;
58864;SDS011;45702;52.982;6.658;2024-03-08T07:53:37;60.95;;;29.73;;
58864;SDS011;45702;52.982;6.658;2024-03-08T07:56:04;58.30;;;29.60;;
58864;SDS011;45702;52.982;6.658;2024-03-08T07:58:30;60.60;;;29.58;;
58864;SDS011;45702;52.982;6.658;2024-03-08T08:00:56;59.35;;;29.00;;
58864;SDS011;45702;52.982;6.658;2024-03-08T08:03:22;62.05;;;28.98;;
58864;SDS011;45702;52.982;6.658;2024-03-08T08:05:48;63.33;;;29.13;;
58864;SDS011;45702;52.982;6.658;2024-03-08T08:08:14;57.80;;;29.00;;
58864;SDS011;45702;52.982;6.658;2024-03-08T08:10:40;57.90;;;29.00;;
58864;SDS011;45702;52.982;6.658;2024-03-08T08:13:07;59.53;;;30.25;;
58864;SDS011;45702;52.982;6.658;2024-03-08T08:15:33;56.58;;;29.42;;
58864;SDS011;45702;52.982;6.658;2024-03-08T08:18:00;59.78;;;30.90;;
58864;SDS011;45702;52.982;6.658;2024-03-08T08:20:30;61.40;;;29.92;;
58864;SDS011;45702;52.982;6.658;2024-03-08T08:22:56;60.60;;;29.58;;
58864;SDS011;45702;52.982;6.658;2024-03-08T08:25:24;56.35;;;28.88;;
58864;SDS011;45702;52.982;6.658;2024-03-08T08:27:50;57.83;;;30.45;;
58864;SDS011;45702;52.982;6.658;2024-03-08T08:30:16;52.45;;;29.58;;
58864;SDS011;45702;52.982;6.658;2024-03-08T08:32:42;57.13;;;29.67;;
58864;SDS011;45702;52.982;6.658;2024-03-08T08:35:08;57.17;;;30.30;;
58864;SDS011;45702;52.982;6.658;2024-03-08T08:37:35;61.03;;;30.88;;
58864;SDS011;45702;52.982;6.658;2024-03-08T08:40:02;59.33;;;31.20;;
58864;SDS011;45702;52.982;6.658;2024-03-08T08:42:34;60.25;;;30.20;;
58864;SDS011;45702;52.982;6.658;2024-03-08T08:45:00;55.25;;;29.52;;
58864;SDS011;45702;52.982;6.658;2024-03-08T08:47:26;59.00;;;30.85;;
58864;SDS011;45702;52.982;6.658;2024-03-08T08:49:53;54.80;;;29.33;;
58864;SDS011;45702;52.982;6.658;2024-03-08T08:52:19;57.03;;;30.27;;
58864;SDS011;45702;52.982;6.658;2024-03-08T08:54:45;50.90;;;29.05;;
58864;SDS011;45702;52.982;6.658;2024-03-08T08:57:11;54.80;;;28.77;;
58864;SDS011;45702;52.982;6.658;2024-03-08T08:59:38;48.65;;;26.27;;
58864;SDS011;45702;52.982;6.658;2024-03-08T09:02:05;54.53;;;29.45;;
58864;SDS011;45702;52.982;6.658;2024-03-08T09:07:00;52.67;;;28.60;;
58864;SDS011;45702;52.982;6.658;2024-03-08T09:09:26;51.58;;;28.50;;
58864;SDS011;45702;52.982;6.658;2024-03-08T09:11:54;52.17;;;28.53;;
58864;SDS011;45702;52.982;6.658;2024-03-08T09:14:21;50.83;;;27.67;;
58864;SDS011;45702;52.982;6.658;2024-03-08T09:16:47;52.60;;;28.63;;
58864;SDS011;45702;52.982;6.658;2024-03-08T09:19:13;51.25;;;28.17;;
58864;SDS011;45702;52.982;6.658;2024-03-08T09:21:40;51.10;;;26.85;;
58864;SDS011;45702;52.982;6.658;2024-03-08T09:24:06;52.88;;;29.17;;
58864;SDS011;45702;52.982;6.658;2024-03-08T09:26:32;53.80;;;28.92;;
58864;SDS011;45702;52.982;6.658;2024-03-08T09:28:59;53.80;;;29.48;;
58864;SDS011;45702;52.982;6.658;2024-03-08T09:31:25;52.85;;;28.52;;
58864;SDS011;45702;52.982;6.658;2024-03-08T09:33:51;53.72;;;29.67;;
58864;SDS011;45702;52.982;6.658;2024-03-08T09:36:17;51.70;;;28.80;;
58864;SDS011;45702;52.982;6.658;2024-03-08T09:38:43;51.85;;;29.17;;
58864;SDS011;45702;52.982;6.658;2024-03-08T09:41:09;48.20;;;28.83;;
58864;SDS011;45702;52.982;6.658;2024-03-08T09:43:36;49.03;;;28.38;;
58864;SDS011;45702;52.982;6.658;2024-03-08T09:46:03;49.20;;;28.45;;
58864;SDS011;45702;52.982;6.658;2024-03-08T09:50:57;51.22;;;27.88;;
58864;SDS011;45702;52.982;6.658;2024-03-08T09:53:23;54.38;;;29.13;;
58864;SDS011;45702;52.982;6.658;2024-03-08T09:55:49;51.88;;;29.15;;
58864;SDS011;45702;52.982;6.658;2024-03-08T09:58:17;51.72;;;29.58;;
58864;SDS011;45702;52.982;6.658;2024-03-08T10:01:01;52.60;;;29.77;;
58864;SDS011;45702;52.982;6.658;2024-03-08T10:03:30;51.80;;;29.08;;
58864;SDS011;45702;52.982;6.658;2024-03-08T10:06:01;52.50;;;30.02;;
58864;SDS011;45702;52.982;6.658;2024-03-08T10:08:27;50.05;;;29.00;;
58864;SDS011;45702;52.982;6.658;2024-03-08T10:10:56;54.47;;;29.42;;
58864;SDS011;45702;52.982;6.658;2024-03-08T10:13:26;54.30;;;29.65;;
58864;SDS011;45702;52.982;6.658;2024-03-08T10:15:53;55.22;;;29.48;;
58864;SDS011;45702;52.982;6.658;2024-03-08T10:18:19;51.63;;;29.95;;
58864;SDS011;45702;52.982;6.658;2024-03-08T10:20:45;53.50;;;29.77;;
58864;SDS011;45702;52.982;6.658;2024-03-08T10:23:11;49.75;;;28.95;;
58864;SDS011;45702;52.982;6.658;2024-03-08T10:25:37;49.80;;;29.60;;
58864;SDS011;45702;52.982;6.658;2024-03-08T10:28:04;55.13;;;30.67;;
58864;SDS011;45702;52.982;6.658;2024-03-08T10:30:30;50.20;;;29.23;;
58864;SDS011;45702;52.982;6.658;2024-03-08T10:32:57;55.58;;;29.25;;
58864;SDS011;45702;52.982;6.658;2024-03-08T10:35:23;52.67;;;29.63;;
58864;SDS011;45702;52.982;6.658;2024-03-08T10:37:51;49.73;;;28.37;;
58864;SDS011;45702;52.982;6.658;2024-03-08T10:40:24;50.20;;;29.08;;
58864;SDS011;45702;52.982;6.658;2024-03-08T10:45:26;48.28;;;29.85;;
58864;SDS011;45702;52.982;6.658;2024-03-08T10:48:40;46.83;;;27.73;;
58864;SDS011;45702;52.982;6.658;2024-03-08T10:50:47;47.97;;;27.45;;
58864;SDS011;45702;52.982;6.658;2024-03-08T10:53:15;47.72;;;27.67;;
58864;SDS011;45702;52.982;6.658;2024-03-08T10:55:43;43.83;;;27.05;;
58864;SDS011;45702;52.982;6.658;2024-03-08T10:58:09;45.85;;;27.88;;
58864;SDS011;45702;52.982;6.658;2024-03-08T11:00:36;44.17;;;27.15;;
58864;SDS011;45702;52.982;6.658;2024-03-08T11:03:02;42.90;;;26.85;;
58864;SDS011;45702;52.982;6.658;2024-03-08T11:05:32;43.58;;;27.27;;
58864;SDS011;45702;52.982;6.658;2024-03-08T11:08:03;44.53;;;27.70;;
58864;SDS011;45702;52.982;6.658;2024-03-08T11:10:29;43.30;;;27.00;;
58864;SDS011;45702;52.982;6.658;2024-03-08T11:12:55;42.05;;;27.45;;
58864;SDS011;45702;52.982;6.658;2024-03-08T11:15:23;43.33;;;26.20;;
58864;SDS011;45702;52.982;6.658;2024-03-08T11:17:50;44.05;;;26.33;;
58864;SDS011;45702;52.982;6.658;2024-03-08T11:22:49;41.28;;;26.73;;
58864;SDS011;45702;52.982;6.658;2024-03-08T11:25:32;43.63;;;26.75;;
58864;SDS011;45702;52.982;6.658;2024-03-08T11:33:24;43.38;;;27.20;;
58864;SDS011;45702;52.982;6.658;2024-03-08T11:35:50;37.97;;;26.48;;
58864;SDS011;45702;52.982;6.658;2024-03-08T11:38:16;40.60;;;27.00;;
58864;SDS011;45702;52.982;6.658;2024-03-08T11:40:45;38.70;;;26.45;;
58864;SDS011;45702;52.982;6.658;2024-03-08T11:43:15;41.95;;;26.92;;
58864;SDS011;45702;52.982;6.658;2024-03-08T11:45:42;40.10;;;26.13;;
58864;SDS011;45702;52.982;6.658;2024-03-08T11:48:08;44.17;;;26.98;;
58864;SDS011;45702;52.982;6.658;2024-03-08T11:50:34;37.88;;;26.42;;
58864;SDS011;45702;52.982;6.658;2024-03-08T11:53:00;38.40;;;26.60;;
58864;SDS011;45702;52.982;6.658;2024-03-08T11:55:27;38.80;;;26.55;;
58864;SDS011;45702;52.982;6.658;2024-03-08T11:58:03;39.60;;;26.15;;
58864;SDS011;45702;52.982;6.658;2024-03-08T12:00:30;35.92;;;25.05;;
58864;SDS011;45702;52.982;6.658;2024-03-08T12:03:04;38.40;;;25.58;;
58864;SDS011;45702;52.982;6.658;2024-03-08T12:05:30;37.45;;;25.73;;
58864;SDS011;45702;52.982;6.658;2024-03-08T12:07:58;38.50;;;26.35;;
58864;SDS011;45702;52.982;6.658;2024-03-08T12:10:24;39.45;;;25.15;;
58864;SDS011;45702;52.982;6.658;2024-03-08T12:12:54;35.13;;;25.10;;
58864;SDS011;45702;52.982;6.658;2024-03-08T12:15:24;39.25;;;25.90;;
58864;SDS011;45702;52.982;6.658;2024-03-08T12:17:51;38.97;;;25.73;;
58864;SDS011;45702;52.982;6.658;2024-03-08T12:22:44;37.13;;;25.52;;
58864;SDS011;45702;52.982;6.658;2024-03-08T12:25:11;38.63;;;25.52;;
58864;SDS011;45702;52.982;6.658;2024-03-08T12:27:41;39.50;;;25.92;;
58864;SDS011;45702;52.982;6.658;2024-03-08T12:30:20;36.65;;;25.95;;
58864;SDS011;45702;52.982;6.658;2024-03-08T12:32:51;35.10;;;24.60;;
58864;SDS011;45702;52.982;6.658;2024-03-08T12:35:19;37.38;;;25.33;;
58864;SDS011;45702;52.982;6.658;2024-03-08T12:37:47;35.50;;;23.70;;
58864;SDS011;45702;52.982;6.658;2024-03-08T12:40:14;33.75;;;24.08;;
58864;SDS011;45702;52.982;6.658;2024-03-08T12:42:42;33.57;;;23.87;;
58864;SDS011;45702;52.982;6.658;2024-03-08T12:45:10;35.15;;;24.60;;
58864;SDS011;45702;52.982;6.658;2024-03-08T12:47:36;35.60;;;24.10;;
58864;SDS011;45702;52.982;6.658;2024-03-08T12:50:02;37.80;;;24.15;;
58864;SDS011;45702;52.982;6.658;2024-03-08T12:52:29;35.63;;;24.25;;
58864;SDS011;45702;52.982;6.658;2024-03-08T12:54:55;34.50;;;24.23;;
58864;SDS011;45702;52.982;6.658;2024-03-08T12:57:21;32.90;;;23.95;;
58864;SDS011;45702;52.982;6.658;2024-03-08T12:59:47;38.03;;;24.30;;
58864;SDS011;45702;52.982;6.658;2024-03-08T13:04:42;35.00;;;24.45;;
58864;SDS011;45702;52.982;6.658;2024-03-08T13:07:09;35.83;;;24.15;;
58864;SDS011;45702;52.982;6.658;2024-03-08T13:09:35;37.58;;;25.42;;
58864;SDS011;45702;52.982;6.658;2024-03-08T13:12:02;34.58;;;23.90;;
58864;SDS011;45702;52.982;6.658;2024-03-08T13:14:28;38.08;;;25.30;;
58864;SDS011;45702;52.982;6.658;2024-03-08T13:16:57;36.35;;;24.38;;
58864;SDS011;45702;52.982;6.658;2024-03-08T13:19:24;33.95;;;24.77;;
58864;SDS011;45702;52.982;6.658;2024-03-08T13:21:53;39.72;;;24.30;;
58864;SDS011;45702;52.982;6.658;2024-03-08T13:24:19;36.58;;;24.15;;
58864;SDS011;45702;52.982;6.658;2024-03-08T13:26:47;35.50;;;24.17;;
58864;SDS011;45702;52.982;6.658;2024-03-08T13:29:15;39.00;;;25.65;;
58864;SDS011;45702;52.982;6.658;2024-03-08T13:31:41;38.70;;;25.35;;
58864;SDS011;45702;52.982;6.658;2024-03-08T13:34:07;36.47;;;24.25;;
58864;SDS011;45702;52.982;6.658;2024-03-08T13:36:35;35.92;;;23.95;;
58864;SDS011;45702;52.982;6.658;2024-03-08T13:39:07;36.55;;;24.52;;
58864;SDS011;45702;52.982;6.658;2024-03-08T13:41:40;39.17;;;24.42;;
58864;SDS011;45702;52.982;6.658;2024-03-08T13:44:07;36.78;;;24.95;;
58864;SDS011;45702;52.982;6.658;2024-03-08T13:46:34;40.70;;;25.25;;
58864;SDS011;45702;52.982;6.658;2024-03-08T13:49:05;39.88;;;25.77;;
58864;SDS011;45702;52.982;6.658;2024-03-08T13:51:34;36.83;;;24.52;;
58864;SDS011;45702;52.982;6.658;2024-03-08T13:54:00;36.28;;;24.55;;
58864;SDS011;45702;52.982;6.658;2024-03-08T13:56:27;38.72;;;24.55;;
58864;SDS011;45702;52.982;6.658;2024-03-08T13:58:56;41.28;;;24.58;;
58864;SDS011;45702;52.982;6.658;2024-03-08T14:01:23;37.78;;;24.33;;
58864;SDS011;45702;52.982;6.658;2024-03-08T14:03:49;38.10;;;24.35;;
58864;SDS011;45702;52.982;6.658;2024-03-08T14:06:15;39.78;;;23.20;;
58864;SDS011;45702;52.982;6.658;2024-03-08T14:08:42;37.72;;;23.80;;
58864;SDS011;45702;52.982;6.658;2024-03-08T14:11:08;37.00;;;24.08;;
58864;SDS011;45702;52.982;6.658;2024-03-08T14:13:44;36.33;;;23.48;;
58864;SDS011;45702;52.982;6.658;2024-03-08T14:16:11;38.60;;;24.40;;
58864;SDS011;45702;52.982;6.658;2024-03-08T14:18:37;44.08;;;25.13;;
58864;SDS011;45702;52.982;6.658;2024-03-08T14:21:03;40.38;;;24.63;;
58864;SDS011;45702;52.982;6.658;2024-03-08T14:23:30;40.13;;;25.90;;
58864;SDS011;45702;52.982;6.658;2024-03-08T14:25:57;43.30;;;25.65;;
58864;SDS011;45702;52.982;6.658;2024-03-08T14:28:24;41.55;;;25.38;;
58864;SDS011;45702;52.982;6.658;2024-03-08T14:30:52;42.65;;;26.65;;
58864;SDS011;45702;52.982;6.658;2024-03-08T14:33:18;41.95;;;25.73;;
58864;SDS011;45702;52.982;6.658;2024-03-08T14:35:44;40.42;;;25.10;;
58864;SDS011;45702;52.982;6.658;2024-03-08T14:38:14;45.47;;;26.55;;
58864;SDS011;45702;52.982;6.658;2024-03-08T14:40:43;45.38;;;27.10;;
58864;SDS011;45702;52.982;6.658;2024-03-08T14:43:12;46.10;;;27.38;;
58864;SDS011;45702;52.982;6.658;2024-03-08T14:45:41;47.88;;;28.15;;